Time;durP1;ratioP1;P1;durP2;ratioP2;P2;SDS_P1;SDS_P2;PMS_P1;PMS_P2;Temp;Humidity;BMP_temperature;BMP_pressure;BME280_temperature;BME280_humidity;BME280_pressure;Samples;Min_cycle;Max_cycle;Signal;HPM_P1;HPM_P2
2022/01/08 00:02:27;;;;;;;46.17;27.27;;;;;;;-0.68;58.41;100144.31;4496738;31;34215;-53
2022/01/08 00:04:54;;;;;;;41.97;24.27;;;;;;;-0.68;58.45;100139.13;4482120;31;33214;-54
2022/01/08 00:07:22;;;;;;;37.75;23.00;;;;;;;-0.70;58.63;100133.09;4496898;31;35470;-53
2022/01/08 00:09:49;;;;;;;39.58;23.62;;;;;;;-0.57;58.51;100127.75;4496162;31;33888;-54
2022/01/08 00:12:17;;;;;;;42.38;24.98;;;;;;;-0.53;58.45;100126.84;4496919;31;33221;-54
2022/01/08 00:14:44;;;;;;;48.38;28.35;;;;;;;-0.62;58.67;100126.06;4496568;31;33933;-53
2022/01/08 00:17:11;;;;;;;49.97;28.50;;;;;;;-0.61;58.79;100127.78;4496805;31;33719;-54
2022/01/08 00:19:39;;;;;;;45.45;27.60;;;;;;;-0.67;59.00;100121.81;4496721;31;33988;-53
2022/01/08 00:22:11;;;;;;;43.60;27.08;;;;;;;-0.77;59.69;100127.97;4495805;31;32780;-54
2022/01/08 00:24:38;;;;;;;45.28;27.05;;;;;;;-0.55;59.16;100126.84;4496746;31;34656;-54
2022/01/08 00:27:06;;;;;;;43.65;27.00;;;;;;;-0.74;59.28;100128.78;4496004;31;34886;-54
2022/01/08 00:29:33;;;;;;;46.22;27.10;;;;;;;-0.49;58.58;100126.78;4496682;31;34586;-53
2022/01/08 00:32:01;;;;;;;48.60;27.50;;;;;;;-0.44;58.58;100125.00;4496321;31;34492;-53
2022/01/08 00:34:29;;;;;;;;;;;;;;;-0.48;58.78;100123.31;4496917;31;33601;-54
2022/01/08 00:36:57;;;;;;;44.08;23.10;;;;;;;-0.37;58.51;100120.59;4496614;31;34695;-52
2022/01/08 00:39:24;;;;;;;36.25;22.67;;;;;;;-0.40;58.37;100108.53;4496360;31;33457;-53
2022/01/08 00:41:55;;;;;;;37.50;22.90;;;;;;;-0.65;59.13;100110.53;4496677;31;34107;-52
2022/01/08 00:44:23;;;;;;;39.25;23.35;;;;;;;-0.52;58.70;100106.09;4495828;31;33920;-53
2022/01/08 00:46:50;;;;;;;39.45;21.80;;;;;;;-0.68;59.22;100104.50;4496675;31;34485;-53
2022/01/08 00:49:18;;;;;;;36.72;22.65;;;;;;;-0.51;58.78;100099.16;4496209;31;35233;-53
2022/01/08 00:51:45;;;;;;;35.28;21.83;;;;;;;-0.56;58.89;100099.22;4496298;31;33694;-53
2022/01/08 00:54:13;;;;;;;38.42;21.92;;;;;;;-0.61;59.12;100094.06;4496286;31;34832;-52
2022/01/08 00:56:40;;;;;;;34.47;21.75;;;;;;;-0.45;58.51;100092.16;4495953;31;34316;-53
2022/01/08 00:59:08;;;;;;;37.45;22.13;;;;;;;-0.53;58.90;100088.78;4496563;31;34996;-53
2022/01/08 01:01:35;;;;;;;39.78;23.60;;;;;;;-0.52;58.88;100089.66;4495588;31;33269;-52
2022/01/08 01:04:03;;;;;;;45.67;28.25;;;;;;;-0.51;58.63;100093.97;4496358;31;33918;-53
2022/01/08 01:06:30;;;;;;;41.90;24.00;;;;;;;-0.63;59.44;100077.66;4496127;31;34296;-52
2022/01/08 01:08:58;;;;;;;44.50;25.25;;;;;;;-0.43;58.83;100076.56;4496252;31;33864;-53
2022/01/08 01:11:25;;;;;;;43.17;26.42;;;;;;;-0.58;59.36;100068.97;4496088;31;34399;-53
2022/01/08 01:13:53;;;;;;;47.10;28.52;;;;;;;-0.36;58.82;100064.37;4495813;31;34422;-52
2022/01/08 01:16:21;;;;;;;51.88;30.25;;;;;;;-0.50;59.17;100039.47;4496426;31;35357;-53
2022/01/08 01:18:49;;;;;;;50.85;30.58;;;;;;;-0.48;59.11;100055.03;4495520;31;34700;-53
2022/01/08 01:21:16;;;;;;;45.88;28.38;;;;;;;-0.57;59.24;100055.13;4496109;31;33319;-53
2022/01/08 01:23:44;;;;;;;47.03;27.77;;;;;;;-0.60;59.40;100054.28;4495949;31;33702;-53
2022/01/08 01:26:17;;;;;;;42.72;26.17;;;;;;;-0.38;59.06;100051.44;4495874;31;34226;-54
2022/01/08 01:47:20;;;;;;;37.33;21.05;;;;;;;-0.68;59.32;100035.38;4497752;31;34445;-54
2022/01/08 01:49:47;;;;;;;37.28;21.87;;;;;;;-0.76;59.67;100029.41;4497404;31;34853;-53
2022/01/08 01:52:16;;;;;;;39.63;22.05;;;;;;;-0.49;58.70;100019.56;4497637;31;34233;-52
2022/01/08 01:54:44;;;;;;;36.70;21.12;;;;;;;-0.49;58.47;100020.41;4497769;31;34938;-53
2022/01/08 01:57:13;;;;;;;39.58;22.15;;;;;;;-0.63;58.69;100020.59;4497140;31;34526;-53
2022/01/08 01:59:41;;;;;;;37.83;22.00;;;;;;;-0.44;58.22;100023.81;4483412;31;34308;-52
2022/01/08 02:02:09;;;;;;;40.25;22.00;;;;;;;-0.36;57.64;100018.53;4496986;31;33986;-52
2022/01/08 02:04:37;;;;;;;37.45;22.70;;;;;;;-0.61;58.60;100010.22;4497600;31;34072;-53
2022/01/08 02:07:07;;;;;;;36.08;20.62;;;;;;;-0.97;59.43;100014.09;4497418;31;34389;-52
2022/01/08 02:09:37;;;;;;;37.72;21.20;;;;;;;-0.77;58.80;100006.94;4497264;31;33898;-53
2022/01/08 02:12:07;;;;;;;36.08;21.15;;;;;;;-0.81;59.01;100015.66;4483745;31;33367;-53
2022/01/08 02:14:36;;;;;;;36.75;21.95;;;;;;;-0.99;59.40;100014.09;4497054;31;33739;-53
2022/01/08 02:17:08;;;;;;;39.17;21.75;;;;;;;-1.02;59.18;100012.41;4497928;31;34456;-52
2022/01/08 02:19:37;;;;;;;35.78;20.55;;;;;;;-1.02;59.07;100009.81;4497147;31;34506;-53
2022/01/08 02:22:05;;;;;;;36.85;20.12;;;;;;;-0.93;58.64;100008.00;4497604;31;33227;-53
2022/01/08 02:24:32;;;;;;;34.13;20.20;;;;;;;-0.83;58.24;100009.63;4497439;31;34489;-52
2022/01/08 02:27:00;;;;;;;;;;;;;;;-1.05;58.58;100007.28;4497526;31;33424;-53
2022/01/08 02:29:27;;;;;;;33.90;18.92;;;;;;;-0.98;58.53;99997.69;4497797;31;35345;-53
2022/01/08 02:32:04;;;;;;;36.65;20.55;;;;;;;-0.92;57.95;100000.19;4497008;31;33090;-52
2022/01/08 02:34:32;;;;;;;34.88;19.73;;;;;;;-1.19;58.81;99988.41;4497629;31;33419;-53
2022/01/08 02:37:00;;;;;;;34.20;19.90;;;;;;;-1.09;58.23;100000.37;4497094;31;34364;-52
2022/01/08 02:39:30;;;;;;;37.47;20.12;;;;;;;-1.24;58.59;99991.06;4483104;31;33591;-53
2022/01/08 02:41:59;;;;;;;34.40;19.77;;;;;;;-1.28;58.66;99993.69;4497445;31;33086;-53
2022/01/08 02:44:27;;;;;;;36.00;19.45;;;;;;;-1.05;57.70;99988.25;4496433;31;34813;-53
2022/01/08 02:46:54;;;;;;;;;;;;;;;-1.31;58.30;99991.13;4497922;31;34247;-52
2022/01/08 02:49:23;;;;;;;33.10;17.58;;;;;;;-1.13;57.63;100003.88;4496834;31;33797;-52
2022/01/08 02:51:52;;;;;;;34.05;18.95;;;;;;;-1.32;58.11;99992.00;4497479;31;33583;-52
2022/01/08 02:54:19;;;;;;;36.72;21.45;;;;;;;-1.22;57.90;99997.09;4497010;31;33507;-53
2022/01/08 02:56:48;;;;;;;34.85;21.65;;;;;;;-1.46;58.53;99985.22;4497139;31;34513;-53
2022/01/08 02:59:16;;;;;;;34.70;20.42;;;;;;;-1.55;59.00;99977.56;4497421;31;33822;-52
2022/01/08 03:01:44;;;;;;;40.58;21.75;;;;;;;-1.56;58.73;99983.59;4496547;31;33381;-53
2022/01/08 03:04:12;;;;;;;37.42;22.45;;;;;;;-1.41;58.30;99985.19;4497352;31;33955;-53
2022/01/08 03:06:40;;;;;;;38.70;22.50;;;;;;;-1.64;58.64;99983.66;4496660;31;34335;-53
2022/01/08 03:09:08;;;;;;;37.08;21.42;;;;;;;-1.40;58.50;99985.19;4497441;31;34028;-53
2022/01/08 03:11:38;;;;;;;41.72;22.58;;;;;;;-1.43;58.15;99986.94;4496855;31;34660;-54
2022/01/08 03:14:06;;;;;;;40.95;22.60;;;;;;;-1.41;58.24;99980.00;4496933;31;35255;-52
2022/01/08 03:16:34;;;;;;;39.90;22.10;;;;;;;-1.51;58.76;99980.94;4497046;31;34469;-53
2022/01/08 03:19:09;;;;;;;35.78;21.65;;;;;;;-1.56;58.68;99985.31;4496597;31;33710;-53
2022/01/08 03:21:41;;;;;;;38.15;21.25;;;;;;;-1.56;59.09;99993.94;4497332;31;33780;-52
2022/01/08 03:24:14;;;;;;;35.80;21.33;;;;;;;-1.81;59.35;99985.53;4496793;31;34570;-52
2022/01/08 03:26:41;;;;;;;35.20;20.20;;;;;;;-1.79;59.42;99984.63;4497104;31;34907;-52
2022/01/08 03:29:09;;;;;;;35.17;20.70;;;;;;;-1.89;59.31;99990.75;4496979;31;34523;-52
2022/01/08 03:31:36;;;;;;;34.90;20.42;;;;;;;-1.73;58.77;99977.69;4496705;31;33063;-54
2022/01/08 03:34:05;;;;;;;35.78;20.25;;;;;;;-1.70;58.40;99981.13;4497089;31;33660;-53
2022/01/08 03:36:33;;;;;;;35.55;20.25;;;;;;;-2.02;59.31;99986.53;4496355;31;34168;-52
2022/01/08 03:39:00;;;;;;;35.97;19.58;;;;;;;-1.93;59.02;99991.66;4497462;31;33604;-53
2022/01/08 03:41:28;;;;;;;34.80;19.52;;;;;;;-2.04;59.42;99991.72;4496460;31;34440;-52
2022/01/08 03:43:56;;;;;;;33.75;18.33;;;;;;;-1.85;58.92;99995.03;4496814;31;34086;-53
2022/01/08 03:46:27;;;;;;;30.40;18.73;;;;;;;-1.74;58.22;100001.88;4496778;31;35183;-53
2022/01/08 03:51:30;;;;;;;36.20;18.15;;;;;;;-1.87;58.42;100004.56;4497141;31;33623;-53
2022/01/08 03:53:57;;;;;;;37.92;19.87;;;;;;;-1.88;58.83;100002.84;4496250;31;33485;-53
2022/01/08 03:56:25;;;;;;;34.83;20.27;;;;;;;-1.86;58.54;100000.22;4495922;31;35182;-53
2022/01/08 03:58:53;;;;;;;32.03;19.20;;;;;;;-1.87;58.58;99996.78;4496492;31;34689;-52
2022/01/08 04:01:20;;;;;;;30.80;17.95;;;;;;;-2.06;58.92;100001.22;4496944;31;34163;-53
2022/01/08 04:03:48;;;;;;;32.75;18.20;;;;;;;-1.87;57.94;99996.78;4496796;31;33982;-52
2022/01/08 04:06:15;;;;;;;32.38;18.90;;;;;;;-2.13;58.90;99993.53;4496391;31;34378;-52
2022/01/08 04:08:43;;;;;;;35.05;19.10;;;;;;;-2.02;58.91;99996.91;4482525;31;34006;-53
2022/01/08 04:11:10;;;;;;;36.00;19.62;;;;;;;-1.95;58.68;99990.81;4496335;31;33651;-53
2022/01/08 04:13:40;;;;;;;49.75;24.27;;;;;;;-1.95;58.48;99979.63;4496925;31;33729;-53
2022/01/08 04:16:13;;;;;;;42.20;21.23;;;;;;;-1.79;57.70;99976.88;4496336;31;35339;-53
2022/01/08 04:18:40;;;;;;;44.97;21.12;;;;;;;-2.11;58.59;99978.84;4496574;31;33778;-53
2022/01/08 04:23:52;;;;;;;32.72;18.75;;;;;;;-1.91;58.23;99966.62;4496059;31;33363;-53
2022/01/08 04:26:22;;;;;;;34.88;18.90;;;;;;;-2.05;58.53;99964.16;4496860;31;34222;-54
2022/01/08 04:28:50;;;;;;;34.60;19.35;;;;;;;-2.19;59.31;99969.44;4496364;31;33714;-53
2022/01/08 04:31:17;;;;;;;33.88;19.70;;;;;;;-2.25;59.45;99961.72;4496611;31;33986;-54
2022/01/08 04:33:45;;;;;;;34.63;19.95;;;;;;;-2.15;59.07;99956.44;4496284;31;34907;-54
2022/01/08 04:36:12;;;;;;;33.25;18.95;;;;;;;-2.16;59.00;99959.94;4496478;31;34525;-53
2022/01/08 04:38:40;;;;;;;35.40;20.10;;;;;;;-2.19;59.16;99946.16;4496558;31;34976;-54
2022/01/08 04:41:07;;;;;;;39.42;20.77;;;;;;;-1.98;58.69;99941.66;4496170;31;33817;-53
2022/01/08 04:43:37;;;;;;;39.50;21.77;;;;;;;-1.99;58.81;99938.22;4496609;31;33987;-53
2022/01/08 04:46:05;;;;;;;44.50;21.73;;;;;;;-2.05;59.01;99927.06;4496219;31;34937;-53
2022/01/08 04:48:32;;;;;;;75.03;35.03;;;;;;;-2.15;59.35;99938.34;4482161;31;33736;-54
2022/01/08 04:51:00;;;;;;;79.45;34.38;;;;;;;-2.05;59.03;99935.69;4496197;31;34368;-53
2022/01/08 04:53:27;;;;;;;62.97;29.05;;;;;;;-2.04;58.85;99934.78;4496042;31;33917;-53
2022/01/08 04:55:55;;;;;;;56.30;27.42;;;;;;;-2.08;58.58;99937.44;4496827;31;33603;-54
2022/01/08 04:58:22;;;;;;;51.53;25.35;;;;;;;-2.27;58.96;99939.28;4495882;31;34146;-54
2022/01/08 05:00:50;;;;;;;47.40;24.20;;;;;;;-2.14;58.92;99933.16;4496443;31;35103;-53
2022/01/08 05:03:17;;;;;;;45.10;23.52;;;;;;;-2.04;58.74;99924.44;4495499;31;33798;-54
2022/01/08 05:05:46;;;;;;;47.40;24.63;;;;;;;-2.24;59.26;99916.84;4496328;31;35343;-53
2022/01/08 05:08:13;;;;;;;52.08;24.35;;;;;;;-2.28;59.32;99920.34;4495643;31;34455;-53
2022/01/08 05:10:41;;;;;;;42.00;22.45;;;;;;;-2.39;59.47;99922.97;4496013;31;34310;-53
2022/01/08 05:13:08;;;;;;;38.92;20.48;;;;;;;-2.20;59.47;99921.12;4496157;31;33594;-54
2022/01/08 05:15:36;;;;;;;38.30;19.75;;;;;;;-1.98;59.14;99933.91;4495660;31;34907;-54
2022/01/08 05:18:06;;;;;;;40.20;21.25;;;;;;;-2.10;59.02;99926.25;4496372;31;34554;-54
2022/01/08 05:20:36;;;;;;;40.00;21.87;;;;;;;-2.00;58.57;99930.47;4495747;31;33131;-53
2022/01/08 05:23:04;;;;;;;36.38;20.12;;;;;;;-2.09;59.03;99921.06;4495982;31;34483;-53
2022/01/08 05:25:32;;;;;;;37.70;19.50;;;;;;;-2.01;58.98;99929.62;4495778;31;35064;-53
2022/01/08 05:28:00;;;;;;;;;;;;;;;-2.21;59.88;99936.66;4495996;31;33993;-53
2022/01/08 05:30:28;;;;;;;33.83;17.45;;;;;;;-1.96;59.15;99941.66;4496336;31;33216;-53
2022/01/08 05:32:56;;;;;;;33.47;18.25;;;;;;;-1.88;59.15;99943.31;4495343;31;33362;-53
2022/01/08 05:35:25;;;;;;;40.15;19.33;;;;;;;-1.90;58.98;99939.87;4496182;31;35056;-53
2022/01/08 05:37:53;;;;;;;32.22;18.40;;;;;;;-1.76;58.81;99929.41;4495326;31;34854;-53
2022/01/08 05:40:21;;;;;;;;;;;;;;;-1.91;59.20;99932.97;4496289;31;33153;-54
2022/01/08 05:42:49;;;;;;;37.03;18.12;;;;;;;-1.96;59.61;99934.75;4495571;31;34149;-54
2022/01/08 05:45:17;;;;;;;35.28;19.00;;;;;;;-2.03;59.49;99931.34;4495454;31;34174;-53
2022/01/08 05:47:44;;;;;;;33.80;18.65;;;;;;;-1.95;59.06;99925.25;4495893;31;34268;-53
2022/01/08 05:50:12;;;;;;;29.52;16.48;;;;;;;-1.95;58.94;99922.69;4495296;31;33212;-53
2022/01/08 05:52:40;;;;;;;30.33;16.83;;;;;;;-1.91;58.55;99930.38;4495834;31;33819;-54
2022/01/08 05:55:08;;;;;;;33.00;18.33;;;;;;;-1.92;58.81;99933.00;4495072;31;34073;-54
2022/01/08 05:57:35;;;;;;;;;;;;;;;-1.97;58.98;99933.03;4495941;31;34131;-54
2022/01/08 06:00:07;;;;;;;28.65;16.23;;;;;;;-1.90;58.52;99941.59;4495499;31;33392;-53
2022/01/08 06:02:35;;;;;;;32.67;17.70;;;;;;;-1.93;58.39;99952.84;4495095;31;34662;-53
2022/01/08 06:05:04;;;;;;;31.37;18.62;;;;;;;-2.01;58.29;99945.13;4476812;31;34152;-53
2022/01/08 06:07:32;;;;;;;31.58;18.33;;;;;;;-1.75;57.72;99951.81;4463314;32;33813;-53
2022/01/08 06:10:00;;;;;;;33.55;18.87;;;;;;;-1.84;57.57;99959.66;4470687;32;33314;-53
2022/01/08 06:12:27;;;;;;;;;;;;;;;-1.87;57.47;99963.13;4462516;32;35083;-53
2022/01/08 06:14:56;;;;;;;32.00;17.85;;;;;;;-2.03;57.80;99972.75;4463326;32;33286;-52
2022/01/08 06:17:23;;;;;;;30.00;16.20;;;;;;;-1.94;57.45;99976.13;4466348;32;33840;-53
2022/01/08 06:19:51;;;;;;;27.70;16.37;;;;;;;-2.02;57.69;99983.97;4473065;32;33607;-53
2022/01/08 06:22:18;;;;;;;30.42;16.65;;;;;;;-2.21;58.04;99983.22;4482140;32;33999;-52
2022/01/08 06:24:46;;;;;;;27.92;15.48;;;;;;;-2.34;58.15;99979.88;4466851;32;35095;-53
2022/01/08 06:27:13;;;;;;;29.17;16.73;;;;;;;-2.44;58.45;99976.47;4466669;32;34749;-52
2022/01/08 06:29:41;;;;;;;30.52;16.02;;;;;;;-2.37;58.43;99972.97;4465741;32;33270;-52
2022/01/08 06:32:08;;;;;;;32.65;17.35;;;;;;;-2.27;58.19;99976.38;4472695;32;34167;-53
2022/01/08 06:34:37;;;;;;;33.40;17.52;;;;;;;-2.38;58.15;99978.19;4481175;32;35277;-52
2022/01/08 06:37:05;;;;;;;37.67;20.30;;;;;;;-2.33;58.06;99975.56;4452050;32;32944;-53
2022/01/08 06:39:32;;;;;;;35.72;19.58;;;;;;;-2.25;57.72;99976.34;4467942;32;33545;-52
2022/01/08 06:42:00;;;;;;;;;;;;;;;-2.50;58.76;99965.28;4481379;32;33478;-52
2022/01/08 06:44:27;;;;;;;32.58;17.67;;;;;;;-2.33;58.19;99976.41;4481830;32;34734;-52
2022/01/08 06:46:54;;;;;;;31.02;16.48;;;;;;;-2.16;57.79;99967.69;4481087;32;33794;-52
2022/01/08 06:49:22;;;;;;;30.73;16.45;;;;;;;-2.18;57.43;99965.97;4481482;32;33529;-53
2022/01/08 06:51:50;;;;;;;31.65;16.87;;;;;;;-2.42;58.16;99966.12;4481631;32;33663;-52
2022/01/08 06:54:17;;;;;;;;;;;;;;;-2.34;58.02;99961.78;4481359;32;34595;-54
2022/01/08 06:56:45;;;;;;;40.10;19.85;;;;;;;-2.24;57.67;99957.41;4481873;32;34335;-54
2022/01/08 06:59:12;;;;;;;42.38;20.17;;;;;;;-2.41;58.29;99954.91;4480819;32;33509;-54
2022/01/08 07:01:40;;;;;;;39.05;19.42;;;;;;;-2.43;58.10;99956.66;4481606;32;34008;-55
2022/01/08 07:04:07;;;;;;;37.20;19.77;;;;;;;-2.18;57.51;99958.19;4480808;32;34124;-54
2022/01/08 07:06:35;;;;;;;38.28;19.73;;;;;;;-2.45;58.70;99964.41;4481578;32;33975;-54
2022/01/08 07:09:02;;;;;;;40.75;20.92;;;;;;;-2.42;58.78;99955.78;4481651;32;33349;-55
2022/01/08 07:11:30;;;;;;;36.53;20.27;;;;;;;-2.36;58.60;99948.00;4480005;32;33997;-54
2022/01/08 07:13:57;;;;;;;34.38;19.05;;;;;;;-2.29;58.56;99941.88;4465873;32;34343;-55
2022/01/08 07:16:29;;;;;;;32.70;17.73;;;;;;;-2.33;58.85;99940.19;4465300;32;33696;-55
2022/01/08 07:18:57;;;;;;;34.33;17.40;;;;;;;-2.34;58.46;99932.47;4465976;32;33106;-55
2022/01/08 07:21:24;;;;;;;32.95;17.62;;;;;;;-2.35;58.86;99935.91;4464943;32;34086;-55
2022/01/08 07:23:53;;;;;;;31.48;17.35;;;;;;;-2.27;58.78;99936.72;4465650;32;35123;-56
2022/01/08 07:26:21;;;;;;;32.10;17.35;;;;;;;-2.40;59.23;99939.37;4465805;32;34196;-55
2022/01/08 07:28:48;;;;;;;33.72;17.23;;;;;;;-2.13;58.34;99934.00;4465303;32;33115;-55
2022/01/08 07:31:16;;;;;;;35.92;18.35;;;;;;;-2.23;59.08;99936.69;4465676;32;33509;-55
2022/01/08 07:33:49;;;;;;;27.50;14.40;;;;;;;-2.16;58.70;99931.47;4465154;32;34109;-55
2022/01/08 07:36:17;;;;;;;26.58;15.38;;;;;;;-2.21;59.13;99932.37;4465833;32;34786;-55
2022/01/08 07:38:47;;;;;;;31.20;17.55;;;;;;;-1.96;58.33;99934.75;4465017;32;33218;-55
2022/01/08 07:41:14;;;;;;;34.60;18.67;;;;;;;-1.90;59.99;99941.59;4465591;32;34176;-55
2022/01/08 07:43:42;;;;;;;;;;;;;;;-1.84;58.61;99936.34;4469721;32;35902;-56
2022/01/08 07:46:09;;;;;;;28.08;16.55;;;;;;;-1.93;58.57;99942.50;4480910;32;34686;-55
2022/01/08 07:48:36;;;;;;;30.15;17.08;;;;;;;-1.88;58.58;99945.91;4473526;32;34240;-55
2022/01/08 07:51:04;;;;;;;31.60;18.33;;;;;;;-1.68;58.38;99932.78;4463668;32;34636;-55
2022/01/08 07:53:31;;;;;;;33.20;16.92;;;;;;;-1.54;58.12;99926.59;4464964;32;35147;-55
2022/01/08 07:55:59;;;;;;;;;;;;;;;-1.65;58.47;99918.94;4464463;32;33877;-55
2022/01/08 07:58:27;;;;;;;31.42;18.73;;;;;;;-1.53;58.07;99908.47;4464842;32;33867;-55
2022/01/08 08:00:54;;;;;;;33.95;19.62;;;;;;;-1.79;58.59;99914.75;4451037;32;34305;-55
2022/01/08 08:03:22;;;;;;;39.00;22.48;;;;;;;-1.67;58.47;99918.94;4464105;32;33515;-56
2022/01/08 08:05:50;;;;;;;36.17;22.13;;;;;;;-1.41;57.74;99912.66;4464303;32;34179;-55
2022/01/08 08:08:21;;;;;;;33.53;19.62;;;;;;;-1.35;57.81;99910.00;4463949;32;34344;-55
2022/01/08 08:10:52;;;;;;;32.15;18.90;;;;;;;-1.40;57.30;99907.47;4464533;32;33920;-55
2022/01/08 08:13:21;;;;;;;31.92;20.08;;;;;;;-1.23;56.73;99907.25;4463875;32;34199;-55
2022/01/08 08:15:49;;;;;;;54.55;31.23;;;;;;;-1.19;57.29;99908.94;4464471;32;34102;-55
2022/01/08 08:18:16;;;;;;;65.20;33.42;;;;;;;-1.13;57.53;99899.38;4464598;32;33921;-55
2022/01/08 08:20:44;;;;;;;84.18;39.53;;;;;;;-0.94;57.52;99894.81;4478196;31;34270;-55
2022/01/08 08:23:11;;;;;;;;;;;;;;;-0.84;57.21;99886.03;4496946;31;34382;-55
2022/01/08 08:25:39;;;;;;;45.33;26.10;;;;;;;-0.80;56.08;99879.94;4477384;31;33976;-55
2022/01/08 08:28:06;;;;;;;37.72;20.95;;;;;;;-0.74;56.18;99887.63;4465036;32;33083;-55
2022/01/08 08:30:35;;;;;;;42.47;24.25;;;;;;;-0.56;55.90;99883.94;4458840;32;203577;-55
2022/01/08 08:33:03;;;;;;;40.47;24.20;;;;;;;-0.40;55.81;99887.13;4471256;32;34046;-55
2022/01/08 08:35:31;;;;;;;44.55;24.15;;;;;;;-0.62;56.03;99882.28;4478931;32;34386;-55
2022/01/08 08:37:59;;;;;;;52.67;26.80;;;;;;;-0.67;55.97;99878.03;4464504;32;33188;-55
2022/01/08 08:40:26;;;;;;;50.28;27.40;;;;;;;-0.57;56.00;99879.59;4465773;32;33248;-56
2022/01/08 08:42:54;;;;;;;47.83;28.12;;;;;;;-0.52;55.91;99866.59;4476790;31;35098;-55
2022/01/08 08:45:23;;;;;;;50.55;26.98;;;;;;;-0.39;56.81;99875.88;4464978;32;34993;-55
2022/01/08 08:47:50;;;;;;;51.33;28.00;;;;;;;-0.24;56.41;99869.59;4471418;32;33377;-55
2022/01/08 08:50:18;;;;;;;48.38;28.75;;;;;;;-0.36;57.14;99870.63;4483190;31;34852;-55
2022/01/08 08:52:46;;;;;;;50.10;27.55;;;;;;;-0.36;57.45;99874.97;4471656;31;33634;-55
2022/01/08 08:55:14;;;;;;;53.80;29.80;;;;;;;-0.20;59.69;99884.22;4472084;31;34100;-55
2022/01/08 08:57:42;;;;;;;52.40;28.12;;;;;;;-0.20;58.73;99897.19;4480664;31;33618;-56
2022/01/08 09:00:11;;;;;;;53.28;30.30;;;;;;;0.01;57.86;99888.19;4469056;31;33730;-55
2022/01/08 09:02:38;;;;;;;52.83;30.65;;;;;;;0.05;57.48;99894.22;4478823;32;33833;-55
2022/01/08 09:05:06;;;;;;;;;;;;;;;0.09;57.42;99885.47;4464167;32;34655;-55
2022/01/08 09:07:34;;;;;;;65.78;35.17;;;;;;;0.24;56.92;99872.22;4479074;32;33510;-55
2022/01/08 09:10:03;;;;;;;62.53;34.95;;;;;;;0.19;56.95;99867.12;4478075;32;33365;-55
2022/01/08 09:12:31;;;;;;;64.95;36.72;;;;;;;0.24;56.94;99869.63;4475896;32;34889;-55
2022/01/08 09:14:59;;;;;;;52.13;30.58;;;;;;;0.07;57.25;99872.50;4471949;32;33443;-55
2022/01/08 09:17:27;;;;;;;56.95;31.10;;;;;;;0.06;56.47;99875.12;4463897;32;33289;-55
2022/01/08 09:19:54;;;;;;;45.25;28.02;;;;;;;0.12;56.46;99867.25;4474666;32;33818;-55
2022/01/08 09:22:22;;;;;;;50.85;27.58;;;;;;;0.09;56.00;99864.69;4479181;32;34524;-55
2022/01/08 09:24:49;;;;;;;45.70;26.05;;;;;;;0.37;66.09;99860.72;4479328;32;34370;-55
2022/01/08 09:27:17;;;;;;;42.85;26.02;;;;;;;2.09;79.25;99870.78;4477796;32;34355;-55
2022/01/08 09:29:46;;;;;;;39.55;26.15;;;;;;;1.84;73.06;99855.81;4471836;31;33861;-55
2022/01/08 09:32:13;;;;;;;41.55;26.42;;;;;;;1.75;65.86;99856.03;4470980;32;34486;-55
2022/01/08 09:34:41;;;;;;;35.28;22.00;;;;;;;2.69;63.10;99849.16;4467984;32;33635;-55
2022/01/08 09:37:10;;;;;;;44.90;26.70;;;;;;;2.37;55.27;99848.31;4464578;32;33475;-55
2022/01/08 09:39:39;;;;;;;45.85;26.48;;;;;;;1.72;52.07;99841.31;4478820;32;34331;-55
2022/01/08 09:42:10;;;;;;;49.30;31.33;;;;;;;1.47;52.35;99843.66;4479334;32;34896;-54
2022/01/08 09:44:39;;;;;;;42.67;29.12;;;;;;;1.36;52.79;99838.72;4479744;32;34275;-55
2022/01/08 09:47:07;;;;;;;37.80;26.62;;;;;;;1.23;52.69;99828.63;4479440;32;33213;-55
2022/01/08 09:49:34;;;;;;;38.92;24.85;;;;;;;1.04;53.20;99836.84;4479377;32;34602;-55
2022/01/08 09:52:03;;;;;;;35.55;24.15;;;;;;;1.00;53.54;99830.00;4478997;32;34609;-55
2022/01/08 09:54:31;;;;;;;41.72;28.73;;;;;;;0.89;53.78;99830.25;4481417;32;33777;-55
2022/01/08 09:56:59;;;;;;;56.80;37.95;;;;;;;0.90;53.43;99826.72;4480706;32;34097;-55
2022/01/08 09:59:28;;;;;;;60.22;38.75;;;;;;;0.98;54.13;99834.37;4482117;32;34409;-55
2022/01/08 10:01:59;;;;;;;54.50;34.63;;;;;;;1.27;53.63;99828.50;4481740;32;35393;-55
2022/01/08 10:04:29;;;;;;;48.33;27.40;;;;;;;1.29;54.08;99826.72;4480487;32;35148;-55
2022/01/08 10:07:23;;;;;;;39.75;26.65;;;;;;;1.29;53.50;99820.69;4482023;32;34084;-55
2022/01/08 10:10:02;;;;;;;43.78;26.90;;;;;;;1.40;53.71;99825.63;4473425;32;33444;-55
2022/01/08 10:12:36;;;;;;;;;;;;;;;1.27;53.84;99814.66;4481738;32;34841;-55
2022/01/08 10:17:50;;;;;;;45.28;25.70;;;;;;;1.41;53.37;99798.72;4480457;32;33429;-55
2022/01/08 10:20:30;;;;;;;39.25;24.92;;;;;;;1.45;53.29;99800.34;4481785;32;35045;-55
2022/01/08 10:23:00;;;;;;;38.58;23.10;;;;;;;1.42;53.35;99800.44;4481126;32;34295;-55
2022/01/08 10:25:27;;;;;;;42.30;25.45;;;;;;;1.32;53.03;99794.59;4466674;32;34251;-55
2022/01/08 10:27:55;;;;;;;41.85;27.05;;;;;;;1.26;53.38;99795.59;4481630;32;33390;-55
2022/01/08 10:30:24;;;;;;;46.22;28.40;;;;;;;1.31;53.58;99791.12;4466681;32;33223;-55
2022/01/08 10:32:59;;;;;;;50.28;31.23;;;;;;;1.35;53.86;99790.16;4481377;32;35520;-55
2022/01/08 10:35:51;;;;;;;51.90;35.05;;;;;;;1.37;53.82;99793.56;4480939;32;34477;-55
2022/01/08 10:38:19;;;;;;;52.15;33.22;;;;;;;1.33;53.52;99804.94;4481220;32;34403;-55
2022/01/08 10:40:46;;;;;;;47.05;29.02;;;;;;;1.43;53.69;99802.13;4481275;32;33705;-55
2022/01/08 10:43:28;;;;;;;40.55;27.25;;;;;;;1.45;54.12;99795.16;4475027;32;35007;-55
2022/01/08 10:46:08;;;;;;;42.30;28.58;;;;;;;1.49;54.02;99800.25;4465897;32;34375;-55
2022/01/08 10:48:35;;;;;;;43.50;31.23;;;;;;;1.66;53.84;99801.56;4464888;32;33966;-55
2022/01/08 10:51:10;;;;;;;;;;;;;;;1.80;53.03;99791.66;4465837;32;33465;-55
2022/01/08 10:53:56;;;;;;;42.75;27.60;;;;;;;1.68;53.79;99805.00;4465870;32;34715;-55
2022/01/08 10:56:36;;;;;;;42.65;26.48;;;;;;;1.79;53.75;99797.78;4465021;32;34383;-55
2022/01/08 10:59:04;;;;;;;34.53;22.83;;;;;;;1.85;53.03;99799.38;4465977;32;33095;-55
2022/01/08 11:01:45;;;;;;;36.08;24.00;;;;;;;1.83;52.71;99798.56;4464918;32;34014;-55
2022/01/08 11:04:15;;;;;;;33.05;21.75;;;;;;;1.77;52.97;99804.78;4465161;32;34068;-55
2022/01/08 11:06:51;;;;;;;31.30;21.05;;;;;;;1.90;52.37;99802.69;4465549;32;34434;-55
2022/01/08 11:09:19;;;;;;;30.40;20.40;;;;;;;1.87;52.35;99792.38;4471266;32;33617;-55
2022/01/08 11:11:50;;;;;;;31.95;19.27;;;;;;;2.11;51.93;99791.72;4466018;32;33702;-55
2022/01/08 11:17:21;;;;;;;35.60;22.00;;;;;;;2.16;51.52;99795.03;4466070;32;34305;-55
2022/01/08 11:19:50;;;;;;;33.30;19.58;;;;;;;2.93;71.95;99789.41;4466340;32;34475;-55
2022/01/08 11:22:23;;;;;;;31.02;18.95;;;;;;;4.56;72.70;99790.91;4464873;32;33487;-56
2022/01/08 11:24:53;;;;;;;30.62;17.92;;;;;;;4.34;55.93;99779.47;4465520;32;34205;-56
2022/01/08 11:27:24;;;;;;;27.73;17.42;;;;;;;3.84;48.00;99770.78;4464902;32;33745;-56
2022/01/08 11:29:58;;;;;;;27.62;19.98;;;;;;;3.97;50.85;99785.13;4469642;31;33181;-56
2022/01/08 11:32:28;;;;;;;31.35;18.23;;;;;;;3.41;48.43;99787.87;4467757;32;33456;-56
2022/01/08 11:34:56;;;;;;;27.10;18.23;;;;;;;2.88;48.90;99788.66;4475341;32;35284;-56
2022/01/08 11:37:27;;;;;;;30.42;18.15;;;;;;;2.58;49.38;99780.87;4466244;32;34127;-56
2022/01/08 11:39:55;;;;;;;28.73;18.52;;;;;;;2.72;49.25;99786.50;4464950;32;34310;-56
2022/01/08 11:42:22;;;;;;;28.95;17.77;;;;;;;2.73;48.98;99776.94;4453388;32;34669;-56
2022/01/08 11:44:52;;;;;;;28.55;18.23;;;;;;;3.26;64.04;99787.50;4474341;32;33807;-56
2022/01/08 11:47:20;;;;;;;28.52;18.65;;;;;;;3.17;57.39;99782.56;4465319;32;34608;-56
2022/01/08 11:49:48;;;;;;;25.50;17.23;;;;;;;3.15;52.72;99781.75;4470358;32;34262;-55
2022/01/08 11:52:19;;;;;;;;;;;;;;;3.24;50.49;99783.19;4463810;32;34010;-56
2022/01/08 11:54:49;;;;;;;26.85;17.85;;;;;;;3.15;50.48;99779.13;4466030;32;35419;-55
2022/01/08 11:57:22;;;;;;;26.20;17.70;;;;;;;3.03;50.46;99784.75;4464496;32;34125;-55
2022/01/08 11:59:57;;;;;;;28.10;17.55;;;;;;;3.04;49.64;99778.63;4468943;32;33548;-56